createdAt,value
2022-08-16T00:03:58.025Z,4181.8
2022-08-16T00:09:36.741Z,4183.6
2022-08-16T00:15:18.069Z,4183.1
2022-08-16T00:20:54.598Z,4179.5
2022-08-16T00:26:51.498Z,4180.5
2022-08-16T00:32:34.713Z,4181.3
2022-08-16T00:38:44.562Z,4178.3
2022-08-16T00:44:42.865Z,4177.5
2022-08-16T00:50:20.298Z,4177.3
2022-08-16T00:55:55.181Z,4180.5
2022-08-16T01:01:36.289Z,4178
2022-08-16T01:07:18.867Z,4179.5
2022-08-16T01:12:55.582Z,4177.8
2022-08-16T01:18:43.451Z,4178.1
2022-08-16T01:24:57.024Z,4177.3
2022-08-16T01:30:51.041Z,4178.1
2022-08-16T01:36:27.888Z,4176.1
2022-08-16T01:42:26.467Z,4174.3
2022-08-16T01:48:21.072Z,4175.8
2022-08-16T01:53:58.520Z,4173.6
2022-08-16T01:59:35.305Z,4174.8
2022-08-16T02:05:12.258Z,4176.6
2022-08-16T02:10:47.572Z,4173.6
2022-08-16T02:16:22.930Z,4172.4
2022-08-16T02:22:37.889Z,4173.9
2022-08-16T02:28:24.171Z,4172.4
2022-08-16T02:34:12.535Z,4172.8
2022-08-16T02:39:55.886Z,4173.9
2022-08-16T02:45:31.767Z,4172.6
2022-08-16T02:51:13.724Z,4173.8
2022-08-16T02:56:48.934Z,4172.1
2022-08-16T03:02:43.415Z,4173.8
2022-08-16T03:08:54.373Z,4172.4
2022-08-16T03:14:30.315Z,4173.4
2022-08-16T03:20:05.795Z,4171.3
2022-08-16T03:25:49.402Z,4169.6
2022-08-16T03:31:24.154Z,4170.1
2022-08-16T03:36:58.860Z,4171.3
2022-08-16T03:43:22.471Z,4166.7
2022-08-16T03:48:55.563Z,4168.9
2022-08-16T03:54:31.283Z,4170.6
2022-08-16T04:00:07.642Z,4170.6
2022-08-16T04:05:47.756Z,4167.7
2022-08-16T04:11:25.726Z,4167.2
2022-08-16T04:17:04.706Z,4169.7
2022-08-16T04:22:49.113Z,4166.6
2022-08-16T04:29:25.641Z,4166.2
2022-08-16T04:35:16.978Z,4168.4
2022-08-16T04:40:55.055Z,4165.9
2022-08-16T04:47:33.564Z,4165.9
2022-08-16T04:53:19.979Z,4163.5
2022-08-16T04:58:58.769Z,4167.1
2022-08-16T05:04:33.487Z,4164.4
2022-08-16T05:10:24.075Z,4163.2
2022-08-16T05:15:59.183Z,4161.5
2022-08-16T05:21:40.405Z,4163.4
2022-08-16T05:27:15.155Z,4164.4
2022-08-16T05:32:55.734Z,4161.7
2022-08-16T05:38:40.966Z,4162.2
2022-08-16T05:44:39.955Z,4157.9
2022-08-16T05:50:35.253Z,4162
2022-08-16T05:56:20.383Z,4160.4
2022-08-16T06:01:57.760Z,4158.7
2022-08-16T06:07:34.378Z,4159.5
2022-08-16T06:13:10.325Z,4162.5
2022-08-16T06:18:46.327Z,4168.7
2022-08-16T06:24:56.945Z,4171.3
2022-08-16T06:30:32.296Z,4170.4
2022-08-16T06:36:09.552Z,4170.9
2022-08-16T06:42:08.670Z,4171.8
2022-08-16T06:47:57.836Z,4171.9
2022-08-16T06:53:33.472Z,4184.8
2022-08-16T06:59:11.403Z,4190.3
2022-08-16T07:04:46.385Z,4191.4
2022-08-16T07:10:28.026Z,4196
2022-08-16T07:16:06.361Z,4207.1
2022-08-16T07:22:01.052Z,4192.7
2022-08-16T07:27:38.539Z,4189.7
2022-08-16T07:33:57.558Z,4194.4
2022-08-16T07:39:55.481Z,4191.4
2022-08-16T07:45:34.676Z,4194.2
2022-08-16T07:51:11.475Z,4214.3
2022-08-16T07:56:46.425Z,4197.5
2022-08-16T08:02:31.482Z,4198.1
2022-08-16T08:08:59.921Z,4198.1
2022-08-16T08:14:34.827Z,4191.5
2022-08-16T08:20:12.261Z,4189.3
2022-08-16T08:25:56.839Z,4206.8
2022-08-16T08:31:42.832Z,4218.8
2022-08-16T08:37:20.959Z,4198.2
2022-08-16T08:43:20.137Z,4194
2022-08-16T08:49:04.969Z,4204.3
2022-08-16T08:54:44.419Z,4213
2022-08-16T09:00:31.166Z,4224
2022-08-16T09:06:09.802Z,4208.1
2022-08-16T09:12:37.066Z,4217.6
2022-08-16T09:18:37.861Z,4221.3
2022-08-16T09:25:15.057Z,4227.2
2022-08-16T09:30:53.155Z,4211.8
2022-08-16T09:36:35.353Z,4226.7
2022-08-16T09:43:01.824Z,4220.5
2022-08-16T09:48:57.018Z,4220.7
2022-08-16T09:54:33.925Z,4215.3
2022-08-16T10:00:47.435Z,4222.3
2022-08-16T10:06:34.720Z,4216.8
2022-08-16T10:12:20.842Z,4218.7
2022-08-16T10:19:09.072Z,4218.3
2022-08-16T10:25:01.171Z,4212.3
2022-08-16T10:30:41.692Z,4217.8
2022-08-16T10:36:40.679Z,4224.4
2022-08-16T10:42:37.566Z,4227.2
2022-08-16T10:48:33.090Z,4223.5
2022-08-16T10:54:33.170Z,4223.3
2022-08-16T11:00:45.957Z,4225.4
2022-08-16T11:06:30.194Z,4228.5
2022-08-16T11:12:15.958Z,4223.5
2022-08-16T11:19:16.761Z,4229.7
2022-08-16T11:26:25.478Z,4216.8
2022-08-16T11:32:00.877Z,4219
2022-08-16T11:39:00.935Z,4229.4
2022-08-16T11:44:58.503Z,4231.2
2022-08-16T11:50:31.161Z,4216.1
2022-08-16T11:56:09.828Z,4229.4
2022-08-16T12:02:34.449Z,4231.4
2022-08-16T12:08:09.614Z,4234.9
2022-08-16T12:13:52.027Z,4224.4
2022-08-16T12:19:38.356Z,4230.9
2022-08-16T12:25:16.055Z,4219.7
2022-08-16T12:30:53.759Z,4224.9
2022-08-16T12:36:32.478Z,4219.5
2022-08-16T12:42:37.057Z,4222.8
2022-08-16T12:48:36.222Z,4224.2
2022-08-16T12:54:12.696Z,4199.1
2022-08-16T12:59:47.953Z,4199.9
2022-08-16T13:05:24.276Z,4200.4
2022-08-16T13:11:00.200Z,4199.6
2022-08-16T13:22:21.070Z,4200.9
2022-08-16T13:28:06.402Z,4200.6
2022-08-16T13:33:41.652Z,4199.6
2022-08-16T13:39:17.383Z,4200.4
2022-08-16T13:45:20.224Z,4197.9
2022-08-16T13:50:53.617Z,4200.6
2022-08-16T13:56:41.334Z,4197.2
2022-08-16T14:02:23.747Z,4200.1
2022-08-16T14:07:58.821Z,4198.4
2022-08-16T14:13:42.864Z,4199.1
2022-08-16T14:19:27.850Z,4198.9
2022-08-16T14:25:19.183Z,4197.7
2022-08-16T14:30:54.258Z,4196.4
2022-08-16T14:36:31.393Z,4194.7
2022-08-16T14:42:27.923Z,4194.7
2022-08-16T14:48:00.656Z,4193
2022-08-16T14:53:52.143Z,4192.5
2022-08-16T14:59:43.896Z,4192.7
2022-08-16T15:05:24.351Z,4197.2
2022-08-16T15:10:59.787Z,4194.2
2022-08-16T15:16:46.633Z,4195
2022-08-16T15:22:27.790Z,4191.7
2022-08-16T15:28:32.569Z,4193.7
2022-08-16T15:34:29.721Z,4192.5
2022-08-16T15:40:26.581Z,4193.9
2022-08-16T15:46:10.638Z,4192.4
2022-08-16T15:51:47.510Z,4193.2
2022-08-16T15:57:23.766Z,4193.9
2022-08-16T16:03:02.565Z,4192.7
2022-08-16T16:08:42.957Z,4188.7
2022-08-16T16:14:19.852Z,4189.8
2022-08-16T16:19:56.633Z,4190.9
2022-08-16T16:25:34.139Z,4186.8
2022-08-16T16:31:09.165Z,4189
2022-08-16T16:36:55.035Z,4189
2022-08-16T16:42:52.168Z,4184.3
2022-08-16T16:48:37.026Z,4186.3
2022-08-16T16:54:29.260Z,4187.3
2022-08-16T17:00:58.954Z,4189.3
2022-08-16T17:06:35.543Z,4188.2
2022-08-16T17:12:57.030Z,4189
2022-08-16T17:19:32.547Z,4183.5
2022-08-16T17:25:09.596Z,4186
2022-08-16T17:30:46.932Z,4185.3
2022-08-16T17:36:55.203Z,4182.1
2022-08-16T17:42:51.885Z,4181
2022-08-16T17:48:25.473Z,4181.3
2022-08-16T17:54:00.267Z,4185.7
2022-08-16T17:59:42.408Z,4179.5
2022-08-16T18:05:18.447Z,4181.8
2022-08-16T18:10:54.177Z,4179.5
2022-08-16T18:16:32.019Z,4179.6
2022-08-16T18:22:07.175Z,4182.8
2022-08-16T18:27:42.105Z,4179.6
2022-08-16T18:33:16.855Z,4178.5
2022-08-16T18:38:52.441Z,4181.5
2022-08-16T18:44:49.029Z,4178
2022-08-16T18:51:16.613Z,4178.5
2022-08-16T18:56:59.289Z,4177.1
2022-08-16T19:03:00.386Z,4180
2022-08-16T19:08:35.258Z,4181.6
2022-08-16T19:14:10.216Z,4175.8
2022-08-16T19:19:45.052Z,4177.1
2022-08-16T19:25:20.106Z,4177.4
2022-08-16T19:30:54.795Z,4178.3
2022-08-16T19:36:38.506Z,4174.9
2022-08-16T19:42:35.013Z,4172.8
2022-08-16T19:48:29.146Z,4178.1
2022-08-16T19:54:04.188Z,4174.4
2022-08-16T19:59:41.731Z,4174.6
2022-08-16T20:05:17.727Z,4175.1
2022-08-16T20:10:53.229Z,4174.4
2022-08-16T20:16:28.035Z,4173.6
2022-08-16T20:22:04.954Z,4174.3
2022-08-16T20:27:39.981Z,4173.3
2022-08-16T20:33:15.760Z,4174.6
2022-08-16T20:38:50.574Z,4173.1
2022-08-16T20:44:47.284Z,4170.9
2022-08-16T20:50:20.811Z,4171.6
2022-08-16T20:55:56.461Z,4173.9
2022-08-16T21:01:52.016Z,4172.1
2022-08-16T21:07:27.028Z,4173.6
2022-08-16T21:13:03.213Z,4172.3
2022-08-16T21:18:38.043Z,4169.6
2022-08-16T21:24:14.034Z,4174.1
2022-08-16T21:29:51.735Z,4170.6
2022-08-16T21:35:27.597Z,4171.3
2022-08-16T21:41:04.175Z,4168.9
2022-08-16T21:46:38.972Z,4169.2
2022-08-16T21:52:27.950Z,4167.4
2022-08-16T21:58:02.855Z,4169.9
2022-08-16T22:03:37.745Z,4170.2
2022-08-16T22:09:12.665Z,4169.7
2022-08-16T22:14:48.918Z,4170.2
2022-08-16T22:20:23.843Z,4168.1
2022-08-16T22:25:58.833Z,4167.1
2022-08-16T22:31:34.093Z,4166.9
2022-08-16T22:37:08.988Z,4166.9
2022-08-16T22:43:05.577Z,4162.2
2022-08-16T22:48:43.622Z,4167.2
2022-08-16T22:54:50.148Z,4163.5
2022-08-16T23:00:25.373Z,4164.9
2022-08-16T23:06:00.598Z,4165.2
2022-08-16T23:11:35.678Z,4167.1
2022-08-16T23:17:10.614Z,4161.5
2022-08-16T23:23:25.118Z,4163.7
2022-08-16T23:29:01.498Z,4164.2
2022-08-16T23:34:36.401Z,4165.7
2022-08-16T23:40:12.415Z,4163.7
2022-08-16T23:45:47.229Z,4164.7
2022-08-16T23:51:21.986Z,4163.5
2022-08-16T23:56:57.003Z,4161.7
